sensor_id;sensor_type;location;lat;lon;timestamp;P1;durP1;ratioP1;P2;durP2;ratioP2
24713;SDS011;12820;51.580;5.010;2023-07-09T00:01:10;11.85;;;6.40;;
24713;SDS011;12820;51.580;5.010;2023-07-09T00:06:15;11.10;;;6.47;;
24713;SDS011;12820;51.580;5.010;2023-07-09T00:11:19;15.32;;;6.80;;
24713;SDS011;12820;51.580;5.010;2023-07-09T00:16:23;12.13;;;6.50;;
24713;SDS011;12820;51.580;5.010;2023-07-09T00:21:26;14.00;;;6.75;;
24713;SDS011;12820;51.580;5.010;2023-07-09T00:26:35;12.18;;;7.47;;
24713;SDS011;12820;51.580;5.010;2023-07-09T00:31:39;11.80;;;6.85;;
24713;SDS011;12820;51.580;5.010;2023-07-09T00:36:44;12.00;;;7.25;;
24713;SDS011;12820;51.580;5.010;2023-07-09T00:41:46;11.82;;;6.97;;
24713;SDS011;12820;51.580;5.010;2023-07-09T00:51:52;12.55;;;8.18;;
24713;SDS011;12820;51.580;5.010;2023-07-09T00:56:57;16.65;;;7.55;;
24713;SDS011;12820;51.580;5.010;2023-07-09T01:02:04;13.38;;;7.45;;
24713;SDS011;12820;51.580;5.010;2023-07-09T01:07:08;15.23;;;7.95;;
24713;SDS011;12820;51.580;5.010;2023-07-09T01:12:10;13.07;;;7.97;;
24713;SDS011;12820;51.580;5.010;2023-07-09T01:17:12;16.98;;;8.13;;
24713;SDS011;12820;51.580;5.010;2023-07-09T01:22:17;19.17;;;7.47;;
24713;SDS011;12820;51.580;5.010;2023-07-09T01:27:22;15.50;;;7.88;;
24713;SDS011;12820;51.580;5.010;2023-07-09T01:32:29;11.93;;;7.00;;
24713;SDS011;12820;51.580;5.010;2023-07-09T01:37:32;14.93;;;7.70;;
24713;SDS011;12820;51.580;5.010;2023-07-09T01:42:37;14.32;;;7.13;;
24713;SDS011;12820;51.580;5.010;2023-07-09T01:47:42;13.18;;;7.70;;
24713;SDS011;12820;51.580;5.010;2023-07-09T01:52:45;12.07;;;7.30;;
24713;SDS011;12820;51.580;5.010;2023-07-09T01:57:51;14.98;;;7.88;;
24713;SDS011;12820;51.580;5.010;2023-07-09T02:02:55;14.45;;;8.02;;
24713;SDS011;12820;51.580;5.010;2023-07-09T02:07:58;12.93;;;7.50;;
24713;SDS011;12820;51.580;5.010;2023-07-09T02:13:01;11.02;;;7.32;;
24713;SDS011;12820;51.580;5.010;2023-07-09T02:18:03;16.65;;;7.90;;
24713;SDS011;12820;51.580;5.010;2023-07-09T02:23:06;15.77;;;8.05;;
24713;SDS011;12820;51.580;5.010;2023-07-09T02:28:09;13.30;;;7.65;;
24713;SDS011;12820;51.580;5.010;2023-07-09T02:33:12;14.00;;;7.70;;
24713;SDS011;12820;51.580;5.010;2023-07-09T02:38:15;15.43;;;7.78;;
24713;SDS011;12820;51.580;5.010;2023-07-09T02:43:17;15.90;;;8.30;;
24713;SDS011;12820;51.580;5.010;2023-07-09T02:48:20;14.13;;;8.35;;
24713;SDS011;12820;51.580;5.010;2023-07-09T02:53:22;16.52;;;8.75;;
24713;SDS011;12820;51.580;5.010;2023-07-09T02:58:24;17.55;;;8.20;;
24713;SDS011;12820;51.580;5.010;2023-07-09T03:03:26;12.70;;;7.97;;
24713;SDS011;12820;51.580;5.010;2023-07-09T03:08:30;18.05;;;8.60;;
24713;SDS011;12820;51.580;5.010;2023-07-09T03:13:32;17.67;;;9.23;;
24713;SDS011;12820;51.580;5.010;2023-07-09T03:18:34;17.75;;;8.48;;
24713;SDS011;12820;51.580;5.010;2023-07-09T03:23:37;16.08;;;8.70;;
24713;SDS011;12820;51.580;5.010;2023-07-09T03:28:39;16.02;;;9.00;;
24713;SDS011;12820;51.580;5.010;2023-07-09T03:33:41;15.93;;;9.27;;
24713;SDS011;12820;51.580;5.010;2023-07-09T03:38:44;16.17;;;8.77;;
24713;SDS011;12820;51.580;5.010;2023-07-09T03:43:46;19.05;;;8.70;;
24713;SDS011;12820;51.580;5.010;2023-07-09T03:48:48;22.77;;;9.38;;
24713;SDS011;12820;51.580;5.010;2023-07-09T03:53:52;19.08;;;8.90;;
24713;SDS011;12820;51.580;5.010;2023-07-09T03:58:55;15.95;;;8.55;;
24713;SDS011;12820;51.580;5.010;2023-07-09T04:03:57;18.00;;;9.77;;
24713;SDS011;12820;51.580;5.010;2023-07-09T04:08:59;15.35;;;8.57;;
24713;SDS011;12820;51.580;5.010;2023-07-09T04:14:01;15.02;;;9.18;;
24713;SDS011;12820;51.580;5.010;2023-07-09T04:19:03;20.05;;;9.65;;
24713;SDS011;12820;51.580;5.010;2023-07-09T04:24:06;17.40;;;9.80;;
24713;SDS011;12820;51.580;5.010;2023-07-09T04:29:09;14.07;;;8.90;;
24713;SDS011;12820;51.580;5.010;2023-07-09T04:34:11;23.48;;;10.32;;
24713;SDS011;12820;51.580;5.010;2023-07-09T04:39:13;15.45;;;9.38;;
24713;SDS011;12820;51.580;5.010;2023-07-09T04:44:16;18.70;;;9.60;;
24713;SDS011;12820;51.580;5.010;2023-07-09T04:49:19;18.52;;;9.68;;
24713;SDS011;12820;51.580;5.010;2023-07-09T04:54:21;20.50;;;11.00;;
24713;SDS011;12820;51.580;5.010;2023-07-09T04:59:24;23.83;;;10.98;;
24713;SDS011;12820;51.580;5.010;2023-07-09T05:04:27;22.90;;;10.77;;
24713;SDS011;12820;51.580;5.010;2023-07-09T05:09:29;22.80;;;10.80;;
24713;SDS011;12820;51.580;5.010;2023-07-09T05:14:31;19.80;;;11.60;;
24713;SDS011;12820;51.580;5.010;2023-07-09T05:19:33;24.33;;;12.02;;
24713;SDS011;12820;51.580;5.010;2023-07-09T05:24:35;18.95;;;12.07;;
24713;SDS011;12820;51.580;5.010;2023-07-09T05:29:37;19.00;;;12.70;;
24713;SDS011;12820;51.580;5.010;2023-07-09T05:34:41;20.42;;;12.50;;
24713;SDS011;12820;51.580;5.010;2023-07-09T05:39:43;19.50;;;11.85;;
24713;SDS011;12820;51.580;5.010;2023-07-09T05:44:45;24.08;;;12.65;;
24713;SDS011;12820;51.580;5.010;2023-07-09T05:49:47;21.05;;;12.10;;
24713;SDS011;12820;51.580;5.010;2023-07-09T05:54:51;25.70;;;12.93;;
24713;SDS011;12820;51.580;5.010;2023-07-09T05:59:54;20.05;;;12.20;;
24713;SDS011;12820;51.580;5.010;2023-07-09T06:04:57;17.42;;;11.80;;
24713;SDS011;12820;51.580;5.010;2023-07-09T06:10:00;19.70;;;11.80;;
24713;SDS011;12820;51.580;5.010;2023-07-09T06:15:02;20.83;;;11.50;;
24713;SDS011;12820;51.580;5.010;2023-07-09T06:20:05;22.25;;;11.90;;
24713;SDS011;12820;51.580;5.010;2023-07-09T06:25:08;18.05;;;11.73;;
24713;SDS011;12820;51.580;5.010;2023-07-09T06:30:10;18.55;;;10.98;;
24713;SDS011;12820;51.580;5.010;2023-07-09T06:35:13;20.10;;;10.70;;
24713;SDS011;12820;51.580;5.010;2023-07-09T06:40:15;17.75;;;10.70;;
24713;SDS011;12820;51.580;5.010;2023-07-09T06:45:17;15.25;;;9.77;;
24713;SDS011;12820;51.580;5.010;2023-07-09T06:50:19;17.33;;;9.07;;
24713;SDS011;12820;51.580;5.010;2023-07-09T06:55:23;18.35;;;9.45;;
24713;SDS011;12820;51.580;5.010;2023-07-09T07:00:25;13.43;;;8.45;;
24713;SDS011;12820;51.580;5.010;2023-07-09T07:05:28;15.38;;;7.90;;
24713;SDS011;12820;51.580;5.010;2023-07-09T07:10:30;12.10;;;8.07;;
24713;SDS011;12820;51.580;5.010;2023-07-09T07:15:36;12.35;;;7.60;;
24713;SDS011;12820;51.580;5.010;2023-07-09T07:20:39;14.10;;;7.55;;
24713;SDS011;12820;51.580;5.010;2023-07-09T07:25:42;15.15;;;7.63;;
24713;SDS011;12820;51.580;5.010;2023-07-09T07:30:44;13.60;;;7.75;;
24713;SDS011;12820;51.580;5.010;2023-07-09T07:35:47;14.07;;;7.75;;
24713;SDS011;12820;51.580;5.010;2023-07-09T07:41:09;12.07;;;7.20;;
24713;SDS011;12820;51.580;5.010;2023-07-09T07:46:14;16.70;;;7.72;;
24713;SDS011;12820;51.580;5.010;2023-07-09T07:51:16;11.20;;;6.95;;
24713;SDS011;12820;51.580;5.010;2023-07-09T07:56:19;14.63;;;7.40;;
24713;SDS011;12820;51.580;5.010;2023-07-09T08:01:21;13.18;;;7.57;;
24713;SDS011;12820;51.580;5.010;2023-07-09T08:06:23;16.95;;;8.20;;
24713;SDS011;12820;51.580;5.010;2023-07-09T08:11:26;13.57;;;7.80;;
24713;SDS011;12820;51.580;5.010;2023-07-09T08:16:30;11.52;;;7.53;;
24713;SDS011;12820;51.580;5.010;2023-07-09T08:21:36;16.23;;;8.88;;
24713;SDS011;12820;51.580;5.010;2023-07-09T08:26:38;16.70;;;8.60;;
24713;SDS011;12820;51.580;5.010;2023-07-09T08:31:41;15.68;;;8.75;;
24713;SDS011;12820;51.580;5.010;2023-07-09T08:36:44;12.63;;;8.98;;
24713;SDS011;12820;51.580;5.010;2023-07-09T08:52:30;11.75;;;7.68;;
24713;SDS011;12820;51.580;5.010;2023-07-09T08:57:39;13.30;;;7.68;;
24713;SDS011;12820;51.580;5.010;2023-07-09T09:02:46;12.25;;;5.60;;
24713;SDS011;12820;51.580;5.010;2023-07-09T09:08:03;12.02;;;5.60;;
24713;SDS011;12820;51.580;5.010;2023-07-09T09:13:16;9.80;;;4.90;;
24713;SDS011;12820;51.580;5.010;2023-07-09T09:18:32;10.85;;;5.15;;
24713;SDS011;12820;51.580;5.010;2023-07-09T09:23:46;9.52;;;5.60;;
24713;SDS011;12820;51.580;5.010;2023-07-09T09:28:54;9.07;;;5.32;;
24713;SDS011;12820;51.580;5.010;2023-07-09T09:33:56;10.43;;;5.53;;
24713;SDS011;12820;51.580;5.010;2023-07-09T09:39:01;10.25;;;5.45;;
24713;SDS011;12820;51.580;5.010;2023-07-09T09:44:03;8.10;;;4.55;;
24713;SDS011;12820;51.580;5.010;2023-07-09T09:49:08;8.98;;;5.13;;
24713;SDS011;12820;51.580;5.010;2023-07-09T09:54:17;11.82;;;5.47;;
24713;SDS011;12820;51.580;5.010;2023-07-09T09:59:31;9.82;;;5.68;;
24713;SDS011;12820;51.580;5.010;2023-07-09T10:04:35;9.23;;;5.10;;
24713;SDS011;12820;51.580;5.010;2023-07-09T10:09:41;8.75;;;4.68;;
24713;SDS011;12820;51.580;5.010;2023-07-09T10:14:47;12.10;;;5.85;;
24713;SDS011;12820;51.580;5.010;2023-07-09T10:47:32;10.57;;;5.57;;
24713;SDS011;12820;51.580;5.010;2023-07-09T10:52:41;10.88;;;5.35;;
24713;SDS011;12820;51.580;5.010;2023-07-09T10:57:59;15.73;;;6.20;;
24713;SDS011;12820;51.580;5.010;2023-07-09T11:03:16;11.20;;;6.22;;
24713;SDS011;12820;51.580;5.010;2023-07-09T11:08:23;9.77;;;6.38;;
24713;SDS011;12820;51.580;5.010;2023-07-09T11:13:37;14.52;;;7.00;;
24713;SDS011;12820;51.580;5.010;2023-07-09T11:18:55;13.73;;;7.15;;
24713;SDS011;12820;51.580;5.010;2023-07-09T11:24:00;9.55;;;7.50;;
24713;SDS011;12820;51.580;5.010;2023-07-09T11:29:16;13.80;;;8.75;;
24713;SDS011;12820;51.580;5.010;2023-07-09T11:34:20;12.48;;;8.30;;
24713;SDS011;12820;51.580;5.010;2023-07-09T11:44:29;17.20;;;9.77;;
24713;SDS011;12820;51.580;5.010;2023-07-09T11:49:39;15.30;;;9.45;;
24713;SDS011;12820;51.580;5.010;2023-07-09T11:54:48;15.15;;;9.25;;
24713;SDS011;12820;51.580;5.010;2023-07-09T11:59:53;15.05;;;9.05;;
24713;SDS011;12820;51.580;5.010;2023-07-09T12:05:01;13.95;;;9.45;;
24713;SDS011;12820;51.580;5.010;2023-07-09T12:10:18;16.70;;;9.98;;
24713;SDS011;12820;51.580;5.010;2023-07-09T12:15:24;15.52;;;9.63;;
24713;SDS011;12820;51.580;5.010;2023-07-09T12:20:32;15.82;;;8.68;;
24713;SDS011;12820;51.580;5.010;2023-07-09T12:25:37;13.80;;;8.07;;
24713;SDS011;12820;51.580;5.010;2023-07-09T12:30:39;13.27;;;6.90;;
24713;SDS011;12820;51.580;5.010;2023-07-09T12:35:46;9.73;;;5.68;;
24713;SDS011;12820;51.580;5.010;2023-07-09T12:40:51;9.40;;;5.32;;
24713;SDS011;12820;51.580;5.010;2023-07-09T12:45:56;10.13;;;5.35;;
24713;SDS011;12820;51.580;5.010;2023-07-09T12:51:00;8.23;;;4.95;;
24713;SDS011;12820;51.580;5.010;2023-07-09T12:56:03;7.70;;;4.00;;
24713;SDS011;12820;51.580;5.010;2023-07-09T13:01:16;9.45;;;3.67;;
24713;SDS011;12820;51.580;5.010;2023-07-09T13:06:38;8.73;;;3.58;;
24713;SDS011;12820;51.580;5.010;2023-07-09T13:11:44;9.27;;;3.50;;
24713;SDS011;12820;51.580;5.010;2023-07-09T13:16:47;8.23;;;3.20;;
24713;SDS011;12820;51.580;5.010;2023-07-09T13:21:52;7.93;;;3.20;;
24713;SDS011;12820;51.580;5.010;2023-07-09T13:26:55;7.32;;;3.53;;
24713;SDS011;12820;51.580;5.010;2023-07-09T13:32:01;6.55;;;2.90;;
24713;SDS011;12820;51.580;5.010;2023-07-09T13:37:04;8.25;;;3.30;;
24713;SDS011;12820;51.580;5.010;2023-07-09T13:42:15;10.52;;;2.92;;
24713;SDS011;12820;51.580;5.010;2023-07-09T13:47:19;8.57;;;3.55;;
24713;SDS011;12820;51.580;5.010;2023-07-09T13:52:22;8.38;;;3.67;;
24713;SDS011;12820;51.580;5.010;2023-07-09T13:57:28;9.80;;;4.65;;
24713;SDS011;12820;51.580;5.010;2023-07-09T14:02:32;12.77;;;4.65;;
24713;SDS011;12820;51.580;5.010;2023-07-09T14:07:36;13.82;;;4.85;;
24713;SDS011;12820;51.580;5.010;2023-07-09T14:12:41;10.40;;;4.15;;
24713;SDS011;12820;51.580;5.010;2023-07-09T14:17:46;10.20;;;3.85;;
24713;SDS011;12820;51.580;5.010;2023-07-09T14:22:50;12.13;;;4.65;;
24713;SDS011;12820;51.580;5.010;2023-07-09T14:27:53;12.68;;;4.32;;
24713;SDS011;12820;51.580;5.010;2023-07-09T14:32:55;8.80;;;4.28;;
24713;SDS011;12820;51.580;5.010;2023-07-09T14:37:59;9.80;;;4.32;;
24713;SDS011;12820;51.580;5.010;2023-07-09T14:43:04;10.68;;;4.68;;
24713;SDS011;12820;51.580;5.010;2023-07-09T14:48:11;9.35;;;4.03;;
24713;SDS011;12820;51.580;5.010;2023-07-09T14:53:16;10.90;;;4.72;;
24713;SDS011;12820;51.580;5.010;2023-07-09T14:58:25;9.82;;;4.20;;
24713;SDS011;12820;51.580;5.010;2023-07-09T15:03:28;11.23;;;4.47;;
24713;SDS011;12820;51.580;5.010;2023-07-09T15:08:31;10.63;;;5.03;;
24713;SDS011;12820;51.580;5.010;2023-07-09T15:13:35;14.48;;;4.95;;
24713;SDS011;12820;51.580;5.010;2023-07-09T15:18:38;9.25;;;4.80;;
24713;SDS011;12820;51.580;5.010;2023-07-09T15:23:40;9.35;;;4.80;;
24713;SDS011;12820;51.580;5.010;2023-07-09T15:28:46;11.30;;;5.05;;
24713;SDS011;12820;51.580;5.010;2023-07-09T15:33:51;11.45;;;5.13;;
24713;SDS011;12820;51.580;5.010;2023-07-09T15:38:54;11.40;;;5.20;;
24713;SDS011;12820;51.580;5.010;2023-07-09T15:43:56;13.63;;;5.22;;
24713;SDS011;12820;51.580;5.010;2023-07-09T15:48:59;11.98;;;5.30;;
24713;SDS011;12820;51.580;5.010;2023-07-09T15:54:03;10.13;;;4.38;;
24713;SDS011;12820;51.580;5.010;2023-07-09T15:59:28;9.63;;;4.78;;
24713;SDS011;12820;51.580;5.010;2023-07-09T16:04:34;14.05;;;4.78;;
24713;SDS011;12820;51.580;5.010;2023-07-09T16:09:37;10.82;;;4.32;;
24713;SDS011;12820;51.580;5.010;2023-07-09T16:14:40;13.48;;;4.53;;
24713;SDS011;12820;51.580;5.010;2023-07-09T16:19:43;10.25;;;4.47;;
24713;SDS011;12820;51.580;5.010;2023-07-09T16:24:45;9.07;;;4.15;;
24713;SDS011;12820;51.580;5.010;2023-07-09T16:29:47;10.93;;;4.10;;
24713;SDS011;12820;51.580;5.010;2023-07-09T16:34:50;11.43;;;4.10;;
24713;SDS011;12820;51.580;5.010;2023-07-09T16:39:55;12.02;;;4.20;;
24713;SDS011;12820;51.580;5.010;2023-07-09T16:44:57;10.18;;;4.63;;
24713;SDS011;12820;51.580;5.010;2023-07-09T16:49:59;11.80;;;5.07;;
24713;SDS011;12820;51.580;5.010;2023-07-09T16:55:02;9.63;;;4.63;;
24713;SDS011;12820;51.580;5.010;2023-07-09T17:00:50;10.43;;;4.43;;
24713;SDS011;12820;51.580;5.010;2023-07-09T17:05:31;10.40;;;4.25;;
24713;SDS011;12820;51.580;5.010;2023-07-09T17:10:33;8.82;;;4.55;;
24713;SDS011;12820;51.580;5.010;2023-07-09T17:15:37;9.32;;;4.60;;
24713;SDS011;12820;51.580;5.010;2023-07-09T17:20:42;7.32;;;3.70;;
24713;SDS011;12820;51.580;5.010;2023-07-09T17:25:45;8.75;;;3.97;;
24713;SDS011;12820;51.580;5.010;2023-07-09T17:30:47;9.00;;;3.53;;
24713;SDS011;12820;51.580;5.010;2023-07-09T17:35:51;8.20;;;3.20;;
24713;SDS011;12820;51.580;5.010;2023-07-09T17:40:54;6.32;;;3.40;;
24713;SDS011;12820;51.580;5.010;2023-07-09T17:45:56;6.18;;;3.08;;
24713;SDS011;12820;51.580;5.010;2023-07-09T17:50:58;8.13;;;3.70;;
24713;SDS011;12820;51.580;5.010;2023-07-09T17:56:01;7.65;;;3.63;;
24713;SDS011;12820;51.580;5.010;2023-07-09T18:01:05;8.38;;;4.07;;
24713;SDS011;12820;51.580;5.010;2023-07-09T18:06:11;6.88;;;3.47;;
24713;SDS011;12820;51.580;5.010;2023-07-09T18:11:22;10.13;;;3.72;;
24713;SDS011;12820;51.580;5.010;2023-07-09T18:16:30;9.60;;;3.40;;
24713;SDS011;12820;51.580;5.010;2023-07-09T18:21:32;9.77;;;3.50;;
24713;SDS011;12820;51.580;5.010;2023-07-09T18:26:34;10.02;;;3.38;;
24713;SDS011;12820;51.580;5.010;2023-07-09T18:31:37;7.57;;;2.80;;
24713;SDS011;12820;51.580;5.010;2023-07-09T18:36:39;8.77;;;2.65;;
24713;SDS011;12820;51.580;5.010;2023-07-09T18:41:44;7.97;;;2.50;;
24713;SDS011;12820;51.580;5.010;2023-07-09T18:46:47;6.78;;;2.58;;
24713;SDS011;12820;51.580;5.010;2023-07-09T18:51:49;8.07;;;2.65;;
24713;SDS011;12820;51.580;5.010;2023-07-09T18:56:52;5.97;;;2.33;;
24713;SDS011;12820;51.580;5.010;2023-07-09T19:01:54;9.00;;;2.70;;
24713;SDS011;12820;51.580;5.010;2023-07-09T19:06:56;7.10;;;2.42;;
24713;SDS011;12820;51.580;5.010;2023-07-09T19:11:59;6.00;;;2.40;;
24713;SDS011;12820;51.580;5.010;2023-07-09T19:17:13;7.90;;;2.63;;
24713;SDS011;12820;51.580;5.010;2023-07-09T19:22:17;11.60;;;2.78;;
24713;SDS011;12820;51.580;5.010;2023-07-09T19:27:21;5.70;;;2.40;;
24713;SDS011;12820;51.580;5.010;2023-07-09T19:32:25;6.10;;;2.50;;
24713;SDS011;12820;51.580;5.010;2023-07-09T19:37:28;6.90;;;2.33;;
24713;SDS011;12820;51.580;5.010;2023-07-09T19:42:31;6.72;;;2.75;;
24713;SDS011;12820;51.580;5.010;2023-07-09T19:47:34;7.60;;;2.65;;
24713;SDS011;12820;51.580;5.010;2023-07-09T19:52:37;5.97;;;2.13;;
24713;SDS011;12820;51.580;5.010;2023-07-09T19:57:39;6.82;;;2.10;;
24713;SDS011;12820;51.580;5.010;2023-07-09T20:02:42;8.07;;;1.85;;
24713;SDS011;12820;51.580;5.010;2023-07-09T20:07:44;8.20;;;1.80;;
24713;SDS011;12820;51.580;5.010;2023-07-09T20:12:50;6.60;;;1.73;;
24713;SDS011;12820;51.580;5.010;2023-07-09T20:17:55;7.32;;;1.90;;
24713;SDS011;12820;51.580;5.010;2023-07-09T20:23:00;8.25;;;2.08;;
24713;SDS011;12820;51.580;5.010;2023-07-09T20:28:04;6.88;;;2.10;;
24713;SDS011;12820;51.580;5.010;2023-07-09T20:33:16;7.35;;;2.13;;
24713;SDS011;12820;51.580;5.010;2023-07-09T20:38:20;7.70;;;2.17;;
24713;SDS011;12820;51.580;5.010;2023-07-09T20:43:27;5.97;;;1.70;;
24713;SDS011;12820;51.580;5.010;2023-07-09T20:48:35;6.65;;;2.03;;
24713;SDS011;12820;51.580;5.010;2023-07-09T20:53:38;7.20;;;2.10;;
24713;SDS011;12820;51.580;5.010;2023-07-09T20:58:40;8.43;;;2.00;;
24713;SDS011;12820;51.580;5.010;2023-07-09T21:03:42;8.27;;;2.42;;
24713;SDS011;12820;51.580;5.010;2023-07-09T21:08:45;6.72;;;2.20;;
24713;SDS011;12820;51.580;5.010;2023-07-09T21:13:47;6.50;;;2.22;;
24713;SDS011;12820;51.580;5.010;2023-07-09T21:18:49;7.43;;;2.50;;
24713;SDS011;12820;51.580;5.010;2023-07-09T21:23:52;6.85;;;2.25;;
24713;SDS011;12820;51.580;5.010;2023-07-09T21:28:54;6.93;;;2.47;;
24713;SDS011;12820;51.580;5.010;2023-07-09T21:33:56;8.55;;;2.80;;
24713;SDS011;12820;51.580;5.010;2023-07-09T21:38:58;8.20;;;2.63;;
24713;SDS011;12820;51.580;5.010;2023-07-09T21:44:01;9.63;;;3.13;;
24713;SDS011;12820;51.580;5.010;2023-07-09T21:49:03;9.05;;;3.08;;
24713;SDS011;12820;51.580;5.010;2023-07-09T21:59:43;7.75;;;3.28;;
24713;SDS011;12820;51.580;5.010;2023-07-09T22:04:46;7.40;;;3.00;;
24713;SDS011;12820;51.580;5.010;2023-07-09T22:09:52;10.75;;;3.40;;
24713;SDS011;12820;51.580;5.010;2023-07-09T22:14:57;6.65;;;3.10;;
24713;SDS011;12820;51.580;5.010;2023-07-09T22:20:06;9.05;;;3.65;;
24713;SDS011;12820;51.580;5.010;2023-07-09T22:25:13;8.00;;;3.35;;
24713;SDS011;12820;51.580;5.010;2023-07-09T22:30:18;9.43;;;3.50;;
24713;SDS011;12820;51.580;5.010;2023-07-09T22:35:21;9.93;;;3.47;;
24713;SDS011;12820;51.580;5.010;2023-07-09T22:40:28;10.93;;;3.60;;
24713;SDS011;12820;51.580;5.010;2023-07-09T22:45:31;9.35;;;3.75;;
24713;SDS011;12820;51.580;5.010;2023-07-09T22:50:34;9.52;;;3.50;;
24713;SDS011;12820;51.580;5.010;2023-07-09T22:55:38;9.52;;;3.88;;
24713;SDS011;12820;51.580;5.010;2023-07-09T23:05:52;11.73;;;4.35;;
24713;SDS011;12820;51.580;5.010;2023-07-09T23:10:55;9.93;;;4.05;;
24713;SDS011;12820;51.580;5.010;2023-07-09T23:15:59;11.52;;;4.25;;
24713;SDS011;12820;51.580;5.010;2023-07-09T23:21:04;8.75;;;3.35;;
24713;SDS011;12820;51.580;5.010;2023-07-09T23:26:09;9.90;;;3.00;;
24713;SDS011;12820;51.580;5.010;2023-07-09T23:31:23;8.93;;;3.70;;
24713;SDS011;12820;51.580;5.010;2023-07-09T23:36:30;10.00;;;3.50;;
24713;SDS011;12820;51.580;5.010;2023-07-09T23:41:43;8.48;;;3.88;;
24713;SDS011;12820;51.580;5.010;2023-07-09T23:46:48;10.18;;;3.20;;
24713;SDS011;12820;51.580;5.010;2023-07-09T23:51:51;12.13;;;3.55;;
24713;SDS011;12820;51.580;5.010;2023-07-09T23:56:53;11.65;;;3.92;;
